createdAt,value
2018-12-16T00:00:53.685Z,28.75
2018-12-16T00:03:20.460Z,30.62
2018-12-16T00:05:47.202Z,29.15
2018-12-16T00:08:13.927Z,30.80
2018-12-16T00:10:40.680Z,32.75
2018-12-16T00:13:07.507Z,32.65
2018-12-16T00:15:34.274Z,31.82
2018-12-16T00:18:01.044Z,32.13
2018-12-16T00:20:27.886Z,35.28
2018-12-16T00:22:54.637Z,33.48
2018-12-16T00:25:21.565Z,31.48
2018-12-16T00:27:48.307Z,25.95
2018-12-16T00:30:15.063Z,34.35
2018-12-16T00:32:41.831Z,40.58
2018-12-16T00:35:08.634Z,37.98
2018-12-16T00:37:35.374Z,38.15
2018-12-16T00:40:02.128Z,31.75
2018-12-16T00:42:28.910Z,38.25
2018-12-16T00:44:55.659Z,27.62
2018-12-16T00:47:22.438Z,35.00
2018-12-16T00:49:49.210Z,41.95
2018-12-16T00:52:15.932Z,37.23
2018-12-16T00:54:42.686Z,33.63
2018-12-16T00:57:09.447Z,32.90
2018-12-16T00:59:36.166Z,28.60
2018-12-16T01:02:02.929Z,35.92
2018-12-16T01:04:29.644Z,34.27
2018-12-16T01:06:56.400Z,32.42
2018-12-16T01:09:23.165Z,31.48
2018-12-16T01:11:49.878Z,33.35
2018-12-16T01:14:16.709Z,29.67
2018-12-16T01:16:43.450Z,29.05
2018-12-16T01:19:10.198Z,35.78
2018-12-16T01:21:36.941Z,39.80
2018-12-16T01:24:03.669Z,34.90
2018-12-16T01:26:30.482Z,33.30
2018-12-16T01:28:57.316Z,33.88
2018-12-16T01:31:24.058Z,35.58
2018-12-16T01:33:50.801Z,38.45
2018-12-16T01:36:19.635Z,34.08
2018-12-16T01:38:46.664Z,33.50
2018-12-16T01:41:13.416Z,38.15
2018-12-16T01:43:40.145Z,36.28
2018-12-16T01:46:06.880Z,27.93
2018-12-16T01:48:33.638Z,34.30
2018-12-16T01:51:00.424Z,33.85
2018-12-16T01:53:27.158Z,31.93
2018-12-16T01:55:53.912Z,32.98
2018-12-16T01:58:20.678Z,39.83
2018-12-16T02:00:47.424Z,36.00
2018-12-16T02:03:14.172Z,34.60
2018-12-16T02:05:40.940Z,40.75
2018-12-16T02:08:07.708Z,34.63
2018-12-16T02:10:34.451Z,36.50
2018-12-16T02:13:01.186Z,35.28
2018-12-16T02:15:27.940Z,31.25
2018-12-16T02:17:54.700Z,42.25
2018-12-16T02:20:21.540Z,32.67
2018-12-16T02:22:48.280Z,39.20
2018-12-16T02:25:15.082Z,33.90
2018-12-16T02:27:41.799Z,28.60
2018-12-16T02:30:10.548Z,34.90
2018-12-16T02:32:37.299Z,38.28
2018-12-16T02:35:04.510Z,29.92
2018-12-16T02:37:31.254Z,31.55
2018-12-16T02:39:57.987Z,36.23
2018-12-16T02:42:24.832Z,31.30
2018-12-16T02:44:51.568Z,30.20
2018-12-16T02:47:18.330Z,35.08
2018-12-16T02:49:45.047Z,37.73
2018-12-16T02:52:11.782Z,36.93
2018-12-16T02:54:38.526Z,35.10
2018-12-16T02:57:05.261Z,32.38
2018-12-16T02:59:31.976Z,35.63
2018-12-16T03:01:58.746Z,36.20
2018-12-16T03:04:25.470Z,38.80
2018-12-16T03:06:52.228Z,33.18
2018-12-16T03:09:21.448Z,37.60
2018-12-16T03:11:50.762Z,39.58
2018-12-16T03:14:17.670Z,34.92
2018-12-16T03:16:44.398Z,38.20
2018-12-16T03:19:11.144Z,43.15
2018-12-16T03:21:37.935Z,32.67
2018-12-16T03:24:04.667Z,37.05
2018-12-16T03:26:35.772Z,34.58
2018-12-16T03:29:00.199Z,31.73
2018-12-16T03:31:26.968Z,34.78
2018-12-16T03:33:53.822Z,40.03
2018-12-16T03:36:20.536Z,38.02
2018-12-16T03:38:47.355Z,36.33
2018-12-16T03:41:14.095Z,40.08
2018-12-16T03:43:40.827Z,34.80
2018-12-16T03:46:08.910Z,37.33
2018-12-16T03:48:37.417Z,38.80
2018-12-16T03:51:05.516Z,36.13
2018-12-16T03:53:32.259Z,40.58
2018-12-16T03:55:59.023Z,34.33
2018-12-16T03:58:25.764Z,38.20
2018-12-16T04:00:52.536Z,26.65
2018-12-16T04:03:19.287Z,37.60
2018-12-16T04:05:46.007Z,35.10
2018-12-16T04:08:12.807Z,38.48
2018-12-16T04:10:39.592Z,40.52
2018-12-16T04:13:06.326Z,40.45
2018-12-16T04:15:33.119Z,33.48
2018-12-16T04:17:59.860Z,32.08
2018-12-16T04:20:26.641Z,41.50
2018-12-16T04:22:53.369Z,35.50
2018-12-16T04:25:22.641Z,39.23
2018-12-16T04:27:49.389Z,47.08
2018-12-16T04:30:16.125Z,35.90
2018-12-16T04:32:47.773Z,39.08
2018-12-16T04:35:14.652Z,31.42
2018-12-16T04:37:41.385Z,40.60
2018-12-16T04:40:10.306Z,38.23
2018-12-16T04:42:37.280Z,40.90
2018-12-16T04:45:04.473Z,37.28
2018-12-16T04:47:32.183Z,39.95
2018-12-16T04:49:59.147Z,36.98
2018-12-16T04:52:25.894Z,43.70
2018-12-16T04:54:52.650Z,39.73
2018-12-16T04:57:19.378Z,41.95
2018-12-16T04:59:46.175Z,34.83
2018-12-16T05:02:12.903Z,25.40
2018-12-16T05:04:39.639Z,38.25
2018-12-16T05:07:06.540Z,40.90
2018-12-16T05:09:33.325Z,31.62
2018-12-16T05:12:00.054Z,41.98
2018-12-16T05:14:26.803Z,38.25
2018-12-16T05:16:53.552Z,28.60
2018-12-16T05:19:20.312Z,37.35
2018-12-16T05:21:47.055Z,29.87
2018-12-16T05:24:13.840Z,40.50
2018-12-16T05:26:40.579Z,38.92
2018-12-16T05:29:07.313Z,40.45
2018-12-16T05:31:34.063Z,42.13
2018-12-16T05:34:00.789Z,31.82
2018-12-16T05:36:27.562Z,36.15
2018-12-16T05:38:54.293Z,40.85
2018-12-16T05:41:21.034Z,31.30
2018-12-16T05:43:47.794Z,37.35
2018-12-16T05:46:14.631Z,33.78
2018-12-16T05:48:41.366Z,34.70
2018-12-16T05:51:08.113Z,28.60
2018-12-16T05:53:34.896Z,31.15
2018-12-16T05:56:01.678Z,41.53
2018-12-16T05:58:28.687Z,36.48
2018-12-16T06:01:10.230Z,36.85
2018-12-16T06:03:37.012Z,34.25
2018-12-16T06:06:03.748Z,31.90
2018-12-16T06:08:30.496Z,38.98
2018-12-16T06:10:57.299Z,37.40
2018-12-16T06:13:24.042Z,33.23
2018-12-16T06:15:52.633Z,36.58
2018-12-16T06:18:19.489Z,34.33
2018-12-16T06:20:48.036Z,39.78
2018-12-16T06:23:15.248Z,34.45
2018-12-16T06:25:41.986Z,39.33
2018-12-16T06:28:08.731Z,34.70
2018-12-16T06:30:35.867Z,35.48
2018-12-16T06:33:02.675Z,31.68
2018-12-16T06:35:29.428Z,34.70
2018-12-16T06:37:56.179Z,32.48
2018-12-16T06:40:22.905Z,33.18
2018-12-16T06:42:49.656Z,30.70
2018-12-16T06:45:16.403Z,34.15
2018-12-16T06:47:43.188Z,33.58
2018-12-16T06:50:09.945Z,30.55
2018-12-16T06:52:36.716Z,32.05
2018-12-16T06:55:03.792Z,36.58
2018-12-16T06:57:30.532Z,31.73
2018-12-16T06:59:57.283Z,33.10
2018-12-16T07:02:24.013Z,34.18
2018-12-16T07:04:50.790Z,32.63
2018-12-16T07:07:17.545Z,32.60
2018-12-16T07:09:44.328Z,35.58
2018-12-16T07:12:11.078Z,32.90
2018-12-16T07:14:37.813Z,30.75
2018-12-16T07:17:06.241Z,33.60
2018-12-16T07:19:33.726Z,33.80
2018-12-16T07:22:01.378Z,38.25
2018-12-16T07:24:30.387Z,31.73
2018-12-16T07:26:57.290Z,30.75
2018-12-16T07:29:24.043Z,34.13
2018-12-16T07:31:51.561Z,34.13
2018-12-16T07:34:20.138Z,32.78
2018-12-16T07:36:47.831Z,33.38
2018-12-16T07:39:15.631Z,32.80
2018-12-16T07:41:43.784Z,34.23
2018-12-16T07:44:11.717Z,34.98
2018-12-16T07:46:42.139Z,30.92
2018-12-16T07:49:09.047Z,34.18
2018-12-16T07:51:36.009Z,31.12
2018-12-16T07:54:02.910Z,29.70
2018-12-16T07:56:29.645Z,31.48
2018-12-16T07:58:56.395Z,29.07
2018-12-16T08:01:23.153Z,36.53
2018-12-16T08:03:49.925Z,34.67
2018-12-16T08:06:16.729Z,36.90
2018-12-16T08:08:43.540Z,32.98
2018-12-16T08:11:10.452Z,33.20
2018-12-16T08:13:37.319Z,28.95
2018-12-16T08:16:05.172Z,36.33
2018-12-16T08:18:32.389Z,32.23
2018-12-16T08:20:59.212Z,34.03
2018-12-16T08:23:26.032Z,31.35
2018-12-16T08:25:52.844Z,36.53
2018-12-16T08:28:19.640Z,35.75
2018-12-16T08:30:46.416Z,31.00
2018-12-16T08:33:13.160Z,35.63
2018-12-16T08:35:41.715Z,33.08
2018-12-16T08:38:08.761Z,28.98
2018-12-16T08:40:35.566Z,30.72
2018-12-16T08:43:04.520Z,33.42
2018-12-16T08:45:31.357Z,29.77
2018-12-16T08:47:58.352Z,34.80
2018-12-16T08:50:28.746Z,33.98
2018-12-16T08:52:57.586Z,33.38
2018-12-16T08:55:25.974Z,32.67
2018-12-16T08:57:53.178Z,34.55
2018-12-16T12:01:34.804Z,24.65
2018-12-16T12:04:03.720Z,28.23
2018-12-16T12:06:30.460Z,31.45
2018-12-16T12:08:57.213Z,25.35
2018-12-16T12:11:24.033Z,27.87
2018-12-16T12:13:50.743Z,23.45
2018-12-16T12:16:17.453Z,28.50
2018-12-16T12:18:44.193Z,26.85
2018-12-16T12:21:10.900Z,25.35
2018-12-16T12:23:37.659Z,23.32
2018-12-16T12:26:04.372Z,24.00
2018-12-16T12:28:31.163Z,24.25
2018-12-16T12:30:57.978Z,25.15
2018-12-16T12:33:24.741Z,29.12
2018-12-16T12:35:51.459Z,27.37
2018-12-16T12:38:18.237Z,24.63
2018-12-16T12:40:44.962Z,27.55
2018-12-16T12:43:11.702Z,28.32
2018-12-16T12:45:38.483Z,30.52
2018-12-16T12:48:05.199Z,23.95
2018-12-16T12:50:31.921Z,27.70
2018-12-16T12:52:58.667Z,25.55
2018-12-16T12:55:26.955Z,27.32
2018-12-16T12:57:53.949Z,24.10
2018-12-16T13:00:20.688Z,23.80
2018-12-16T13:02:47.432Z,28.52
2018-12-16T13:05:14.161Z,26.93
2018-12-16T13:07:40.883Z,23.27
2018-12-16T13:10:08.287Z,30.25
2018-12-16T13:12:35.056Z,27.20
2018-12-16T13:15:01.872Z,34.63
2018-12-16T13:17:28.622Z,25.50
2018-12-16T13:19:55.341Z,27.42
2018-12-16T13:22:22.076Z,25.23
2018-12-16T13:24:54.726Z,28.10
2018-12-16T13:27:21.504Z,26.97
2018-12-16T13:29:48.228Z,30.92
2018-12-16T13:32:14.938Z,26.00
2018-12-16T13:34:41.720Z,26.95
2018-12-16T13:37:08.482Z,26.05
2018-12-16T13:39:35.244Z,30.52
2018-12-16T13:42:02.008Z,29.72
2018-12-16T13:44:28.749Z,30.48
2018-12-16T13:46:55.471Z,29.40
2018-12-16T13:49:22.244Z,27.15
2018-12-16T13:51:48.974Z,28.05
2018-12-16T13:54:15.679Z,28.55
2018-12-16T13:56:42.457Z,30.08
2018-12-16T13:59:09.184Z,28.83
2018-12-16T14:01:35.898Z,27.45
2018-12-16T14:04:02.640Z,25.52
2018-12-16T14:06:29.424Z,26.97
2018-12-16T14:08:56.123Z,29.98
2018-12-16T14:11:22.844Z,27.22
2018-12-16T14:13:49.650Z,29.05
2018-12-16T14:16:16.373Z,24.23
2018-12-16T14:18:43.083Z,27.17
2018-12-16T14:21:09.831Z,26.93
2018-12-16T14:23:36.579Z,23.95
2018-12-16T14:26:03.365Z,25.52
2018-12-16T14:28:30.151Z,29.55
2018-12-16T14:30:56.935Z,25.52
2018-12-16T14:33:23.640Z,27.30
2018-12-16T14:35:50.608Z,26.85
2018-12-16T14:38:17.583Z,29.42
2018-12-16T14:40:44.348Z,25.48
2018-12-16T14:43:11.123Z,23.40
2018-12-16T14:45:37.847Z,27.10
2018-12-16T14:48:04.607Z,29.40
2018-12-16T14:50:31.339Z,25.27
2018-12-16T14:52:58.073Z,28.92
2018-12-16T14:55:24.999Z,27.02
2018-12-16T14:57:51.766Z,29.75
2018-12-16T15:00:18.527Z,25.12
2018-12-16T15:02:45.248Z,25.65
2018-12-16T15:05:12.087Z,27.70
2018-12-16T15:07:38.805Z,27.93
2018-12-16T15:10:06.434Z,28.60
2018-12-16T15:12:33.199Z,30.48
2018-12-16T15:14:59.904Z,30.92
2018-12-16T15:17:26.695Z,30.08
2018-12-16T15:19:53.439Z,31.85
2018-12-16T15:22:20.200Z,30.80
2018-12-16T15:24:46.952Z,28.17
2018-12-16T15:27:13.707Z,29.35
2018-12-16T15:29:40.565Z,28.10
2018-12-16T15:32:08.175Z,27.80
2018-12-16T15:34:35.132Z,27.98
2018-12-16T15:37:01.851Z,25.72
2018-12-16T15:39:28.569Z,32.67
2018-12-16T15:41:55.345Z,28.15
2018-12-16T15:44:22.077Z,32.35
2018-12-16T15:46:48.823Z,32.15
2018-12-16T15:49:15.568Z,32.45
2018-12-16T15:51:42.319Z,31.48
2018-12-16T15:54:09.076Z,30.65
2018-12-16T15:56:35.835Z,30.57
2018-12-16T15:59:02.603Z,31.70
2018-12-16T16:01:29.327Z,32.80
2018-12-16T16:03:56.031Z,28.87
2018-12-16T16:06:22.777Z,27.35
2018-12-16T16:08:49.500Z,33.20
2018-12-16T16:11:16.238Z,32.65
2018-12-16T16:13:42.976Z,33.83
2018-12-16T16:16:09.686Z,31.40
2018-12-16T16:18:36.428Z,33.08
2018-12-16T16:21:03.162Z,32.65
2018-12-16T16:23:29.891Z,32.00
2018-12-16T16:25:56.696Z,36.35
2018-12-16T16:28:23.433Z,33.78
2018-12-16T16:30:50.149Z,31.23
2018-12-16T16:33:16.917Z,26.40
2018-12-16T16:35:44.486Z,26.77
2018-12-16T16:40:55.525Z,31.90
2018-12-16T16:43:23.629Z,32.48
2018-12-16T16:45:51.342Z,30.15
2018-12-16T16:48:18.212Z,27.02
2018-12-16T16:50:45.885Z,30.65
2018-12-16T16:53:13.281Z,30.52
2018-12-16T16:55:41.679Z,28.32
2018-12-16T16:58:09.598Z,32.42
2018-12-16T17:00:36.533Z,29.37
2018-12-16T17:03:05.028Z,29.30
2018-12-16T17:05:32.031Z,32.55
2018-12-16T17:07:59.526Z,31.80
2018-12-16T17:10:27.412Z,33.85
2018-12-16T17:12:56.305Z,31.37
2018-12-16T17:15:23.797Z,33.45
2018-12-16T17:17:51.798Z,31.40
2018-12-16T17:20:19.805Z,31.27
2018-12-16T17:22:47.007Z,37.50
2018-12-16T17:25:17.890Z,30.02
2018-12-16T17:27:45.102Z,30.25
2018-12-16T17:30:12.071Z,32.63
2018-12-16T17:32:39.706Z,32.23
2018-12-16T17:35:07.809Z,34.78
2018-12-16T17:37:36.433Z,28.47
2018-12-16T17:40:05.100Z,32.20
2018-12-16T17:42:33.382Z,38.88
2018-12-16T17:45:02.194Z,32.42
2018-12-16T17:47:30.557Z,33.02
2018-12-16T17:49:58.352Z,36.77
2018-12-16T17:52:26.407Z,36.15
2018-12-16T17:54:55.105Z,38.83
2018-12-16T17:57:22.867Z,33.58
2018-12-16T17:59:50.810Z,36.33
2018-12-16T18:02:20.344Z,33.40
2018-12-16T18:04:47.188Z,32.83
2018-12-16T18:07:16.454Z,38.25
2018-12-16T18:09:43.805Z,32.63
2018-12-16T18:12:17.303Z,34.10
2018-12-16T18:14:47.217Z,35.60
2018-12-16T18:17:14.893Z,34.05
2018-12-16T18:19:44.726Z,34.80
2018-12-16T18:22:14.497Z,36.73
2018-12-16T18:24:42.490Z,33.48
2018-12-16T18:27:11.383Z,35.00
2018-12-16T18:29:40.275Z,35.58
2018-12-16T18:32:09.649Z,37.42
2018-12-16T18:34:38.043Z,34.75
2018-12-16T18:37:06.615Z,31.65
2018-12-16T18:39:34.474Z,34.88
2018-12-16T18:42:02.591Z,40.00
2018-12-16T18:44:30.354Z,35.20
2018-12-16T18:47:00.062Z,33.92
2018-12-16T18:49:26.825Z,38.60
2018-12-16T18:51:55.594Z,38.15
2018-12-16T18:54:23.596Z,38.53
2018-12-16T18:56:53.157Z,36.03
2018-12-16T18:59:21.275Z,38.35
2018-12-16T19:01:49.987Z,35.05
2018-12-16T19:04:20.071Z,38.67
2018-12-16T19:06:48.761Z,39.67
2018-12-16T19:09:17.038Z,38.95
2018-12-16T19:11:45.280Z,35.10
2018-12-16T19:14:13.877Z,39.40
2018-12-16T19:16:41.058Z,42.27
2018-12-16T19:19:07.968Z,37.83
2018-12-16T19:21:34.789Z,38.48
2018-12-16T19:24:02.474Z,43.58
2018-12-16T19:26:31.322Z,33.48
2018-12-16T19:29:00.082Z,42.70
2018-12-16T19:31:28.643Z,42.98
2018-12-16T19:33:57.528Z,38.13
2018-12-16T19:36:29.217Z,37.25
2018-12-16T19:38:57.253Z,37.67
2018-12-16T19:41:24.788Z,42.03
2018-12-16T19:43:52.887Z,36.03
2018-12-16T19:46:21.082Z,34.38
2018-12-16T19:48:48.017Z,41.73
2018-12-16T19:51:15.941Z,36.75
2018-12-16T19:53:44.252Z,38.90
2018-12-16T19:56:12.762Z,39.95
2018-12-16T19:58:41.516Z,39.23
2018-12-16T20:01:09.839Z,42.27
2018-12-16T20:03:41.663Z,36.42
2018-12-16T20:06:15.848Z,37.42
2018-12-16T20:08:44.088Z,42.35
2018-12-16T20:11:12.450Z,37.98
2018-12-16T20:13:40.919Z,46.35
2018-12-16T20:16:08.599Z,42.23
2018-12-16T20:18:37.047Z,41.65
2018-12-16T20:21:06.354Z,40.40
2018-12-16T20:23:33.290Z,41.55
2018-12-16T20:26:00.427Z,38.90
2018-12-16T20:28:28.449Z,40.35
2018-12-16T20:30:56.091Z,39.03
2018-12-16T20:33:23.901Z,41.73
2018-12-16T20:35:52.993Z,37.98
2018-12-16T20:38:21.586Z,39.88
2018-12-16T20:40:50.040Z,45.28
2018-12-16T20:43:18.448Z,44.03
2018-12-16T20:45:47.154Z,43.23
2018-12-16T20:48:15.802Z,48.13
2018-12-16T20:50:43.621Z,44.85
2018-12-16T20:53:11.420Z,48.60
2018-12-16T20:55:38.206Z,42.55
2018-12-16T20:58:04.990Z,48.25
2018-12-16T21:00:34.091Z,52.90
2018-12-16T21:03:00.953Z,51.25
2018-12-16T21:08:16.362Z,43.25
2018-12-16T21:10:43.165Z,44.75
2018-12-16T21:13:15.780Z,47.88
2018-12-16T21:15:48.161Z,42.25
2018-12-16T21:18:22.565Z,41.53
2018-12-16T21:20:49.403Z,46.88
2018-12-16T21:23:16.174Z,41.35
2018-12-16T21:25:42.945Z,44.80
2018-12-16T21:28:09.753Z,48.38
2018-12-16T21:30:40.539Z,50.10
2018-12-16T21:33:07.851Z,45.50
2018-12-16T21:35:34.793Z,45.05
2018-12-16T21:38:01.493Z,44.48
2018-12-16T21:40:28.228Z,45.30
2018-12-16T21:42:54.961Z,40.98
2018-12-16T21:45:21.913Z,46.00
2018-12-16T21:47:48.633Z,40.23
2018-12-16T21:50:15.443Z,48.38
2018-12-16T21:52:42.169Z,45.15
2018-12-16T21:55:08.861Z,46.35
2018-12-16T21:57:35.582Z,46.77
2018-12-16T22:00:02.379Z,49.67
2018-12-16T22:02:29.131Z,44.40
2018-12-16T22:04:55.828Z,42.85
2018-12-16T22:07:22.531Z,42.55
2018-12-16T22:09:49.290Z,45.08
2018-12-16T22:12:15.998Z,59.58
2018-12-16T22:14:42.753Z,51.10
2018-12-16T22:17:09.579Z,45.88
2018-12-16T22:19:36.290Z,47.35
2018-12-16T22:22:03.153Z,45.28
2018-12-16T22:24:29.854Z,42.70
2018-12-16T22:26:56.574Z,45.45
2018-12-16T22:29:23.277Z,48.35
2018-12-16T22:31:49.987Z,48.00
2018-12-16T22:34:16.692Z,51.50
2018-12-16T22:36:43.406Z,47.50
2018-12-16T22:39:10.124Z,45.85
2018-12-16T22:41:36.834Z,44.65
2018-12-16T22:44:03.621Z,47.13
2018-12-16T22:46:30.513Z,50.45
2018-12-16T22:48:57.218Z,49.95
2018-12-16T22:51:23.957Z,50.55
2018-12-16T22:53:50.658Z,50.50
2018-12-16T22:56:17.359Z,50.92
2018-12-16T22:58:44.118Z,48.25
2018-12-16T23:01:16.663Z,50.12
2018-12-16T23:03:43.382Z,46.25
2018-12-16T23:06:10.131Z,45.60
2018-12-16T23:08:36.859Z,55.73
2018-12-16T23:11:03.618Z,47.65
2018-12-16T23:13:30.334Z,52.53
2018-12-16T23:15:57.079Z,53.65
2018-12-16T23:18:23.807Z,46.42
2018-12-16T23:20:50.525Z,56.40
2018-12-16T23:23:17.271Z,50.92
2018-12-16T23:25:43.968Z,52.45
2018-12-16T23:28:10.670Z,55.28
2018-12-16T23:30:37.396Z,51.53
2018-12-16T23:33:04.090Z,50.90
2018-12-16T23:35:30.801Z,52.70
2018-12-16T23:37:57.538Z,49.38
2018-12-16T23:40:24.254Z,58.52
2018-12-16T23:42:50.994Z,50.12
2018-12-16T23:45:17.698Z,50.20
2018-12-16T23:47:44.398Z,52.53
2018-12-16T23:50:11.212Z,47.13
2018-12-16T23:52:38.040Z,53.73
2018-12-16T23:55:04.794Z,49.88
2018-12-16T23:57:31.537Z,50.08
2018-12-16T23:59:58.391Z,51.65
